Impacts METAR Board INFO
IDs:

KPIT - Pittsburgh Intl, PA, US

Updated at: 0738 UTC 11 Dec 2017
Potential Impact None Slight Moderate High
Time10/19Z 10/20Z 10/21Z 10/22Z 10/23Z 11/00Z 11/01Z 11/02Z 11/03Z 11/04Z 11/05Z 11/06Z 11/07Z
VIS10 10 10 10 10 10 10 10 10 10 10 10 10
CIG29 70 70 90 90 60 60 60 45 39 37 37 36
CoverOVCOVCOVCOVCOVCOVCOVCOVCOVCOVCOVCOVCOVC
FltCatMVFRVFRVFRVFRVFRVFRVFRVFRVFRVFRVFRVFRVFR
WX--------------------------
WDir260230230230220230250230240230230230240
WSpd14 11 11 9 7 10 7 12 7 8 8 6 5
WGst20 20 -- -- -- -- -- -- -- -- -- -- --
Raw hourly METARs
KPIT 101851Z 26014G20KT 10SM BKN029 OVC037 00/M08 A2995 RMK AO2 SLP161 T00001078
KPIT 101951Z 23011G20KT 10SM FEW033 BKN070 OVC085 01/M08 A2994 RMK AO2 SLP159 T00061078
KPIT 102051Z 23011KT 10SM FEW034 OVC070 00/M08 A2994 RMK AO2 SLP158 T00001083 56012
KPIT 102151Z 23009KT 10SM FEW034 SCT070 OVC090 00/M08 A2994 RMK AO2 SLP159 T00001083
KPIT 102251Z 22007KT 10SM OVC090 00/M08 A2994 RMK AO2 SLP158 T00001078
KPIT 102351Z 23010KT 10SM OVC060 00/M08 A2996 RMK AO2 SLP165 T00001078 10006 21006 53006
KPIT 110051Z 25007KT 10SM OVC060 00/M08 A2997 RMK AO2 SLP168 T00001083
KPIT 110151Z 23012KT 10SM OVC060 01/M08 A2997 RMK AO2 SLP168 T00061078
KPIT 110251Z 24007KT 10SM OVC045 01/M08 A2997 RMK AO2 SLP167 T00061078 50002
KPIT 110351Z 23008KT 10SM OVC039 01/M08 A2996 RMK AO2 SLP165 T00061078
KPIT 110451Z 23008KT 10SM OVC037 01/M08 A2996 RMK AO2 SLP164 T00061078 400061017
KPIT 110551Z 23006KT 10SM OVC037 01/M08 A2995 RMK AO2 SLP160 T00061078 10006 20000 58006
KPIT 110651Z 24005KT 10SM OVC036 01/M07 A2995 RMK AO2 SLP162 T00061072